Time;durP1;ratioP1;P1;durP2;ratioP2;P2;SDS_P1;SDS_P2;PMS_P1;PMS_P2;Temp;Humidity;BMP_temperature;BMP_pressure;BME280_temperature;BME280_humidity;BME280_pressure;Samples;Min_cycle;Max_cycle;Signal;HPM_P1;HPM_P2
2022/12/25 00:01:43;;;;;;;7.90;7.70;;;8.50;99.90;;;;;;5087028;28;20297;-84
2022/12/25 00:04:11;;;;;;;7.77;7.57;;;8.50;99.90;;;;;;5086189;28;20249;-83
2022/12/25 00:06:39;;;;;;;7.70;7.50;;;8.50;99.90;;;;;;5084694;28;20234;-83
2022/12/25 00:09:08;;;;;;;7.87;7.67;;;8.50;99.90;;;;;;5085584;28;20273;-84
2022/12/25 00:11:36;;;;;;;7.90;7.70;;;8.60;99.90;;;;;;5085083;28;20257;-83
2022/12/25 00:14:03;;;;;;;7.70;7.50;;;8.60;99.90;;;;;;5085663;28;20222;-84
2022/12/25 00:16:33;;;;;;;7.70;7.50;;;8.70;99.90;;;;;;5087347;28;20332;-84
2022/12/25 00:19:00;;;;;;;7.63;7.43;;;8.70;99.90;;;;;;5095373;28;20313;-84
2022/12/25 00:21:29;;;;;;;8.07;7.87;;;8.70;99.90;;;;;;5090059;28;20233;-84
2022/12/25 00:23:58;;;;;;;7.77;7.57;;;8.70;99.90;;;;;;5087421;28;20325;-84
2022/12/25 00:26:28;;;;;;;7.80;7.60;;;8.60;99.90;;;;;;5085800;28;20237;-84
2022/12/25 00:28:57;;;;;;;7.90;7.70;;;8.50;99.90;;;;;;5086652;28;20230;-83
2022/12/25 00:31:26;;;;;;;7.90;7.70;;;8.40;99.90;;;;;;5098805;28;20257;-84
2022/12/25 00:33:54;;;;;;;7.90;7.70;;;8.30;99.90;;;;;;5097999;28;20261;-84
2022/12/25 00:36:23;;;;;;;7.80;7.60;;;8.20;99.90;;;;;;5097929;28;20245;-84
2022/12/25 00:38:51;;;;;;;7.73;7.53;;;8.20;99.90;;;;;;5082112;28;20229;-84
2022/12/25 00:42:17;;;;;;;7.70;7.50;;;8.20;99.90;;;;;;5081520;28;20240;-84
2022/12/25 00:44:13;;;;;;;7.60;7.40;;;8.20;99.90;;;;;;5081016;28;20241;-84
2022/12/25 00:46:42;;;;;;;7.60;7.40;;;8.20;99.90;;;;;;5084169;28;20233;-84
2022/12/25 00:49:10;;;;;;;7.70;7.50;;;8.20;99.90;;;;;;5094888;28;20261;-84
2022/12/25 00:51:37;;;;;;;7.70;7.50;;;8.20;99.90;;;;;;5095001;28;20249;-83
2022/12/25 00:54:05;;;;;;;7.87;7.67;;;8.20;99.90;;;;;;5098555;28;20214;-84
2022/12/25 00:56:33;;;;;;;7.60;7.40;;;8.20;99.90;;;;;;5098920;28;20238;-83
2022/12/25 00:59:00;;;;;;;7.80;7.60;;;8.20;99.90;;;;;;5097516;28;20230;-84
2022/12/25 01:01:30;;;;;;;7.70;7.50;;;8.20;99.90;;;;;;5097556;28;20218;-82
2022/12/25 01:03:58;;;;;;;7.77;7.57;;;8.20;99.90;;;;;;5097265;28;20237;-84
2022/12/25 01:06:26;;;;;;;7.83;7.63;;;8.20;99.90;;;;;;5097773;28;20210;-84
2022/12/25 01:11:39;;;;;;;7.83;7.63;;;8.20;99.90;;;;;;5097285;28;20234;-84
2022/12/25 01:14:07;;;;;;;8.03;7.83;;;8.20;99.90;;;;;;5096482;28;20226;-84
2022/12/25 01:16:36;;;;;;;7.80;7.60;;;8.20;99.90;;;;;;5094171;28;20333;-84
2022/12/25 01:19:04;;;;;;;7.80;7.60;;;8.20;99.90;;;;;;5096913;28;21005;-84
2022/12/25 01:21:32;;;;;;;7.90;7.70;;;8.20;99.90;;;;;;5096587;28;20230;-83
2022/12/25 01:24:03;;;;;;;7.90;7.70;;;8.10;99.90;;;;;;5089266;28;20284;-83
2022/12/25 01:26:31;;;;;;;7.90;7.70;;;8.10;99.90;;;;;;5088455;28;20240;-84
2022/12/25 01:29:00;;;;;;;7.80;7.60;;;8.10;99.90;;;;;;5087581;28;20704;-84
2022/12/25 01:31:27;;;;;;;7.93;7.73;;;8.00;99.90;;;;;;5086240;28;20242;-83
2022/12/25 01:33:57;;;;;;;7.87;7.67;;;8.00;99.90;;;;;;5087576;28;20231;-84
2022/12/25 01:36:26;;;;;;;7.90;7.70;;;8.00;99.90;;;;;;5086219;28;20293;-84
2022/12/25 01:39:12;;;;;;;7.70;7.50;;;8.00;99.90;;;;;;5093030;28;20262;-84
2022/12/25 01:41:42;;;;;;;8.00;7.80;;;8.00;99.90;;;;;;5094576;28;20235;-84
2022/12/25 01:45:18;;;;;;;7.80;7.60;;;8.00;99.90;;;;;;5094752;28;20293;-83
2022/12/25 01:47:48;;;;;;;7.70;7.50;;;8.00;99.90;;;;;;5059062;28;20241;-84
2022/12/25 01:50:18;;;;;;;7.90;7.70;;;8.10;99.90;;;;;;5093574;28;20222;-84
2022/12/25 01:52:47;;;;;;;7.80;7.60;;;8.10;99.90;;;;;;5094195;28;20238;-84
2022/12/25 01:55:16;;;;;;;7.80;7.60;;;8.20;99.90;;;;;;5094373;28;20238;-83
2022/12/25 01:57:45;;;;;;;7.73;7.53;;;8.10;99.90;;;;;;5094659;28;20229;-83
2022/12/25 02:00:15;;;;;;;7.97;7.77;;;8.10;99.90;;;;;;5094130;28;20214;-84
2022/12/25 02:02:45;;;;;;;7.77;7.57;;;8.20;99.90;;;;;;5094141;28;20230;-84
2022/12/25 02:05:24;;;;;;;7.73;7.53;;;8.20;99.90;;;;;;5093923;28;20246;-83
2022/12/25 02:07:52;;;;;;;7.60;7.40;;;8.20;99.90;;;;;;5094367;28;20226;-84
2022/12/25 02:10:21;;;;;;;7.73;7.53;;;8.20;99.90;;;;;;5093956;28;20218;-84
2022/12/25 02:12:50;;;;;;;7.60;7.40;;;8.20;99.90;;;;;;5093670;28;20234;-83
2022/12/25 02:15:22;;;;;;;7.70;7.50;;;8.20;99.90;;;;;;5094599;28;20252;-83
2022/12/25 02:17:58;;;;;;;7.70;7.50;;;8.20;99.90;;;;;;5088027;28;20222;-84
2022/12/25 02:20:57;;;;;;;7.90;7.70;;;8.20;99.90;;;;;;5083172;28;20226;-83
2022/12/25 02:23:46;;;;;;;7.80;7.60;;;8.20;99.90;;;;;;5083777;28;20214;-83
2022/12/25 02:26:25;;;;;;;7.70;7.50;;;8.10;99.90;;;;;;5083080;28;21011;-83
2022/12/25 02:29:01;;;;;;;7.90;7.70;;;8.10;99.90;;;;;;5083150;28;20329;-83
2022/12/25 02:31:36;;;;;;;7.83;7.63;;;8.10;99.90;;;;;;5082862;28;20229;-83
2022/12/25 02:34:12;;;;;;;7.70;7.50;;;8.10;99.90;;;;;;5084987;28;20248;-84
2022/12/25 02:36:48;;;;;;;7.73;7.53;;;8.10;99.90;;;;;;5085231;28;20241;-83
2022/12/25 02:42:15;;;;;;;7.60;7.40;;;8.10;99.90;;;;;;5083977;28;20242;-83
2022/12/25 03:07:08;;;;;;;7.60;7.40;;;7.90;99.90;;;;;;5084638;28;20223;-84
2022/12/25 03:12:40;;;;;;;7.80;7.60;;;7.80;99.90;;;;;;5085022;28;20332;-83
2022/12/25 03:18:01;;;;;;;7.70;7.50;;;7.80;99.90;;;;;;5085323;28;20226;-84
2022/12/25 03:28:50;;;;;;;7.60;7.40;;;7.70;99.90;;;;;;5087829;28;20222;-83
2022/12/25 03:31:26;;;;;;;7.57;7.37;;;7.80;99.90;;;;;;5086976;28;20264;-84
2022/12/25 04:36:10;;;;;;;7.57;7.37;;;7.40;99.90;;;;;;5124956;22;20253;-84
2022/12/25 04:38:40;;;;;;;7.40;7.20;;;7.30;99.90;;;;;;5106390;28;20328;-84
2022/12/25 04:41:18;;;;;;;7.50;7.30;;;7.20;99.90;;;;;;5105745;28;20233;-84
2022/12/25 04:43:47;;;;;;;7.60;7.40;;;7.20;99.90;;;;;;5105774;28;20260;-83
2022/12/25 04:46:16;;;;;;;7.50;7.30;;;7.20;99.90;;;;;;5105592;28;20344;-84
2022/12/25 04:48:46;;;;;;;7.60;7.40;;;7.20;99.90;;;;;;5105590;28;20264;-83
2022/12/25 04:51:16;;;;;;;7.60;7.40;;;7.20;99.90;;;;;;5105474;28;20297;-84
2022/12/25 04:53:46;;;;;;;7.70;7.50;;;7.30;99.90;;;;;;5109462;28;20241;-84
2022/12/25 04:56:18;;;;;;;7.60;7.40;;;7.20;99.90;;;;;;5107406;28;20233;-84
2022/12/25 04:58:45;;;;;;;7.57;7.37;;;7.10;99.90;;;;;;5106899;28;20241;-84
2022/12/25 05:01:14;;;;;;;7.53;7.33;;;7.10;99.90;;;;;;5106216;28;20233;-84
2022/12/25 05:03:44;;;;;;;7.60;7.40;;;7.00;99.90;;;;;;5104769;28;20316;-84
2022/12/25 05:06:12;;;;;;;7.63;7.43;;;6.90;99.90;;;;;;5104998;28;20230;-84
2022/12/25 05:08:41;;;;;;;7.70;7.50;;;6.80;99.90;;;;;;5104797;28;20263;-84
2022/12/25 05:11:12;;;;;;;7.60;7.40;;;6.80;99.90;;;;;;5104347;28;20224;-84
2022/12/25 05:13:43;;;;;;;7.70;7.50;;;6.80;99.90;;;;;;5104025;28;20229;-84
2022/12/25 05:16:20;;;;;;;7.70;7.50;;;6.80;99.90;;;;;;5103985;28;20244;-83
2022/12/25 05:18:49;;;;;;;7.77;7.57;;;6.80;99.90;;;;;;5103826;28;20228;-84
2022/12/25 05:21:18;;;;;;;7.60;7.40;;;6.80;99.90;;;;;;5102258;28;20229;-84
2022/12/25 05:23:49;;;;;;;7.70;7.50;;;6.90;99.90;;;;;;5102472;28;20233;-84
2022/12/25 05:26:19;;;;;;;7.43;7.23;;;6.80;99.90;;;;;;5101861;28;20292;-84
2022/12/25 05:28:49;;;;;;;7.70;7.50;;;6.90;99.90;;;;;;5102840;28;20245;-84
2022/12/25 05:31:17;;;;;;;7.60;7.40;;;6.90;99.90;;;;;;5102434;28;20260;-84
2022/12/25 05:33:45;;;;;;;7.87;7.67;;;6.80;99.90;;;;;;5102329;28;20257;-84
2022/12/25 05:36:15;;;;;;;7.90;7.70;;;6.80;99.90;;;;;;5102115;28;20341;-84
2022/12/25 05:38:44;;;;;;;7.90;7.70;;;6.70;99.90;;;;;;5103150;28;20245;-84
2022/12/25 05:41:16;;;;;;;7.90;7.70;;;6.60;99.90;;;;;;5102053;28;20287;-84
2022/12/25 05:43:46;;;;;;;7.90;7.70;;;6.60;99.90;;;;;;5103662;28;20221;-84
2022/12/25 05:46:16;;;;;;;8.00;7.80;;;6.60;99.90;;;;;;5102944;28;20237;-84
2022/12/25 05:48:44;;;;;;;7.90;7.70;;;6.50;99.90;;;;;;5102966;28;20233;-83
2022/12/25 05:51:14;;;;;;;7.90;7.70;;;6.40;99.90;;;;;;5110769;28;20230;-81
2022/12/25 05:53:43;;;;;;;7.73;7.53;;;6.40;99.90;;;;;;5110637;27;20240;-82
2022/12/25 05:56:13;;;;;;;7.80;7.60;;;6.40;99.90;;;;;;5115573;28;20241;-83
2022/12/25 05:58:42;;;;;;;7.77;7.57;;;6.40;99.90;;;;;;5110206;28;20295;-82
2022/12/25 06:01:19;;;;;;;7.70;7.50;;;6.30;99.90;;;;;;5105885;28;20221;-83
2022/12/25 06:03:48;;;;;;;7.90;7.70;;;6.30;99.90;;;;;;5104490;28;20335;-83
2022/12/25 06:06:18;;;;;;;7.77;7.57;;;6.30;99.90;;;;;;5104052;28;20268;-83
2022/12/25 06:08:50;;;;;;;7.53;7.33;;;6.30;99.90;;;;;;5104042;28;20236;-83
2022/12/25 06:11:18;;;;;;;7.70;7.50;;;6.30;99.90;;;;;;5103209;28;20236;-83
2022/12/25 06:16:43;;;;;;;7.60;7.40;;;6.30;99.90;;;;;;5101233;28;20229;-83
2022/12/25 06:19:14;;;;;;;7.50;7.30;;;6.30;99.90;;;;;;5102452;28;20234;-84
2022/12/25 06:21:41;;;;;;;7.60;7.40;;;6.30;99.90;;;;;;5102366;28;20324;-85
2022/12/25 06:24:10;;;;;;;7.50;7.30;;;6.40;99.90;;;;;;5102454;28;20265;-84
2022/12/25 06:26:40;;;;;;;7.40;7.20;;;6.40;99.90;;;;;;5102660;28;20233;-83
2022/12/25 06:29:09;;;;;;;7.50;7.30;;;6.40;99.90;;;;;;5102902;28;20248;-84
2022/12/25 06:31:47;;;;;;;7.53;7.33;;;6.50;99.90;;;;;;5103718;28;20273;-83
2022/12/25 06:34:17;;;;;;;7.63;7.43;;;6.50;99.90;;;;;;5102613;28;20257;-84
2022/12/25 06:36:46;;;;;;;7.40;7.20;;;6.60;99.90;;;;;;5103534;28;20248;-84
2022/12/25 06:39:16;;;;;;;7.40;7.20;;;6.60;99.90;;;;;;5106167;28;20226;-83
2022/12/25 06:41:45;;;;;;;7.60;7.40;;;6.70;99.90;;;;;;5105609;28;20229;-84
2022/12/25 06:44:14;;;;;;;7.43;7.23;;;6.70;99.90;;;;;;5105478;28;20245;-84
2022/12/25 06:46:58;;;;;;;7.57;7.37;;;6.60;99.90;;;;;;5105802;28;20275;-84
2022/12/25 06:49:31;;;;;;;7.60;7.40;;;6.70;99.90;;;;;;5106335;28;20217;-84
2022/12/25 06:52:00;;;;;;;7.40;7.20;;;6.70;99.90;;;;;;5106457;28;20225;-83
2022/12/25 06:54:30;;;;;;;7.23;7.03;;;6.80;99.90;;;;;;5105935;28;20249;-84
2022/12/25 06:57:00;;;;;;;7.20;7.00;;;6.80;99.90;;;;;;5105793;28;20243;-84
2022/12/25 06:59:29;;;;;;;7.30;7.10;;;6.90;99.90;;;;;;5105931;28;20241;-84
2022/12/25 07:04:45;;;;;;;7.43;7.23;;;7.10;99.90;;;;;;5104286;28;20225;-83
2022/12/25 07:07:15;;;;;;;7.50;7.30;;;7.10;99.90;;;;;;5106074;28;20765;-83
2022/12/25 07:09:44;;;;;;;7.40;7.20;;;7.10;99.90;;;;;;5109193;28;20240;-83
2022/12/25 07:12:23;;;;;;;7.40;7.20;;;7.10;99.90;;;;;;5112905;28;20348;-83
2022/12/25 07:14:53;;;;;;;7.77;7.57;;;7.20;99.90;;;;;;5110767;28;20233;-83
2022/12/25 07:17:33;;;;;;;7.60;7.40;;;7.20;99.90;;;;;;5114130;28;20241;-83
2022/12/25 07:20:01;;;;;;;7.67;7.47;;;7.20;99.90;;;;;;5108605;28;20229;-83
2022/12/25 07:22:30;;;;;;;7.50;7.30;;;7.30;99.90;;;;;;5106860;28;20287;-84
2022/12/25 07:24:58;;;;;;;7.80;7.60;;;7.30;99.90;;;;;;5106789;28;20228;-86
2022/12/25 07:27:28;;;;;;;7.60;7.40;;;7.30;99.90;;;;;;5106269;28;20705;-85
2022/12/25 07:29:58;;;;;;;7.60;7.40;;;7.30;99.90;;;;;;5104633;28;20316;-85
2022/12/25 07:35:15;;;;;;;7.37;7.17;;;7.20;99.90;;;;;;5103996;28;20220;-83
2022/12/25 07:37:44;;;;;;;7.50;7.30;;;7.10;99.90;;;;;;5104308;28;20268;-83
2022/12/25 07:40:15;;;;;;;7.60;7.40;;;7.10;99.90;;;;;;5104747;28;20256;-85
2022/12/25 07:42:44;;;;;;;7.30;7.10;;;7.10;99.90;;;;;;5103598;28;20264;-85
2022/12/25 07:45:13;;;;;;;7.47;7.27;;;7.10;99.90;;;;;;5102843;28;20320;-85
2022/12/25 07:47:46;;;;;;;7.33;7.13;;;7.10;99.90;;;;;;5102686;28;20292;-85
2022/12/25 07:50:13;;;;;;;7.47;7.27;;;7.10;99.90;;;;;;5107421;28;20311;-85
2022/12/25 07:52:46;;;;;;;7.50;7.30;;;7.10;99.90;;;;;;5104258;28;20799;-85
2022/12/25 07:55:14;;;;;;;7.27;7.07;;;7.10;99.90;;;;;;5104779;28;20249;-85
2022/12/25 07:57:41;;;;;;;7.60;7.40;;;7.10;99.90;;;;;;5110267;28;20230;-84
2022/12/25 08:00:10;;;;;;;7.40;7.20;;;7.10;99.90;;;;;;5114744;28;20771;-85
2022/12/25 08:02:39;;;;;;;7.10;6.90;;;7.10;99.90;;;;;;5108315;28;20229;-85
2022/12/25 08:05:18;;;;;;;7.07;6.87;;;7.10;99.90;;;;;;5105243;28;20277;-85
2022/12/25 08:07:47;;;;;;;7.30;7.10;;;7.20;99.90;;;;;;5104638;28;20305;-86
2022/12/25 08:10:17;;;;;;;7.20;7.00;;;7.20;99.90;;;;;;5104795;28;20230;-83
2022/12/25 08:12:46;;;;;;;7.00;6.80;;;7.20;99.90;;;;;;5103794;28;20269;-85
2022/12/25 08:15:17;;;;;;;6.83;6.63;;;7.20;99.90;;;;;;5104615;28;20312;-83
2022/12/25 08:17:45;;;;;;;7.10;6.90;;;7.30;99.90;;;;;;5107261;28;20236;-82
2022/12/25 08:20:23;;;;;;;7.30;7.10;;;7.30;99.90;;;;;;5105838;28;20234;-85
2022/12/25 08:22:53;;;;;;;6.97;6.77;;;7.40;99.90;;;;;;5105281;28;20264;-84
2022/12/25 08:25:22;;;;;;;7.20;7.00;;;7.40;99.90;;;;;;5104747;28;20244;-84
2022/12/25 08:27:52;;;;;;;7.10;6.90;;;7.40;99.90;;;;;;5105463;28;20312;-84
2022/12/25 08:30:22;;;;;;;7.07;6.87;;;7.50;99.90;;;;;;5104878;28;20232;-83
2022/12/25 08:32:50;;;;;;;7.17;6.97;;;7.50;99.90;;;;;;5104250;28;20292;-84
2022/12/25 08:35:22;;;;;;;7.23;7.03;;;7.50;99.90;;;;;;5103662;28;20213;-84
2022/12/25 08:37:50;;;;;;;7.20;7.00;;;7.60;99.90;;;;;;5104001;28;20340;-84
2022/12/25 08:40:19;;;;;;;7.10;6.90;;;7.60;99.90;;;;;;5104114;28;20249;-84
2022/12/25 08:42:50;;;;;;;7.13;6.93;;;7.70;99.90;;;;;;5104012;28;20317;-84
2022/12/25 08:45:17;;;;;;;6.97;6.77;;;7.70;99.90;;;;;;5103921;28;20289;-84
2022/12/25 08:47:47;;;;;;;7.00;6.80;;;7.70;99.90;;;;;;5103426;28;20229;-84
2022/12/25 08:50:16;;;;;;;6.90;6.70;;;7.80;99.90;;;;;;5104495;28;20240;-84
2022/12/25 08:52:55;;;;;;;6.90;6.70;;;7.80;99.90;;;;;;5102878;28;20225;-84
2022/12/25 08:55:24;;;;;;;7.00;6.80;;;7.80;99.90;;;;;;5102962;28;20240;-84
2022/12/25 08:57:54;;;;;;;6.93;6.73;;;7.90;99.90;;;;;;5104593;28;20225;-84
2022/12/25 09:00:23;;;;;;;6.70;6.50;;;7.90;99.90;;;;;;5104426;28;20240;-84
2022/12/25 09:02:53;;;;;;;6.90;6.70;;;8.00;99.90;;;;;;5103816;28;20222;-84
2022/12/25 09:05:23;;;;;;;6.93;6.73;;;8.00;99.90;;;;;;5104138;28;20276;-84
2022/12/25 09:07:54;;;;;;;7.00;6.80;;;8.10;99.90;;;;;;5103875;28;20260;-84
2022/12/25 09:10:23;;;;;;;6.90;6.70;;;8.10;99.90;;;;;;5104251;28;20245;-84
2022/12/25 09:12:53;;;;;;;7.07;6.87;;;8.20;99.90;;;;;;5104117;28;20217;-84
2022/12/25 09:15:21;;;;;;;7.27;7.07;;;8.30;99.90;;;;;;5104599;28;20241;-84
2022/12/25 09:17:49;;;;;;;7.10;6.90;;;8.30;99.90;;;;;;5104746;28;20229;-84
2022/12/25 09:20:19;;;;;;;7.27;7.07;;;8.40;99.90;;;;;;5104345;28;20238;-84
2022/12/25 09:22:48;;;;;;;7.30;7.10;;;8.50;99.90;;;;;;5104589;28;20240;-85
2022/12/25 09:28:05;;;;;;;7.40;7.20;;;8.50;99.90;;;;;;5103278;28;20293;-85
2022/12/25 09:30:34;;;;;;;7.50;7.30;;;8.60;99.90;;;;;;5104850;28;20226;-84
2022/12/25 09:33:03;;;;;;;7.53;7.33;;;8.60;99.90;;;;;;5104284;28;20218;-84
2022/12/25 09:35:33;;;;;;;7.80;7.60;;;8.60;99.90;;;;;;5103972;28;20233;-85
2022/12/25 09:38:02;;;;;;;7.70;7.50;;;8.60;99.90;;;;;;5105217;28;20233;-85
2022/12/25 09:43:30;;;;;;;7.67;7.47;;;8.60;99.90;;;;;;5103878;28;20214;-85
2022/12/25 09:46:00;;;;;;;7.87;7.67;;;8.60;99.90;;;;;;5105842;28;20293;-85
2022/12/25 09:48:31;;;;;;;7.83;7.63;;;8.60;99.90;;;;;;5105096;28;20264;-85
2022/12/25 09:51:08;;;;;;;7.90;7.70;;;8.60;99.90;;;;;;5104910;28;20237;-84
2022/12/25 09:53:39;;;;;;;7.70;7.50;;;8.60;99.90;;;;;;5106276;28;20327;-84
2022/12/25 09:56:16;;;;;;;7.77;7.57;;;8.60;99.90;;;;;;5103090;28;20268;-85
2022/12/25 09:58:44;;;;;;;8.00;7.80;;;8.60;99.90;;;;;;5105215;28;20239;-84
2022/12/25 10:01:34;;;;;;;7.80;7.60;;;8.70;99.90;;;;;;5106072;28;20233;-84
2022/12/25 10:04:26;;;;;;;7.77;7.57;;;8.80;99.90;;;;;;5106382;28;20265;-85
2022/12/25 10:07:13;;;;;;;7.93;7.73;;;8.80;99.90;;;;;;5105603;28;20249;-83
2022/12/25 10:10:01;;;;;;;8.00;7.80;;;8.90;99.90;;;;;;5106791;28;20229;-84
2022/12/25 10:12:48;;;;;;;7.80;7.60;;;8.90;99.90;;;;;;5106361;28;20300;-85
2022/12/25 10:15:34;;;;;;;8.20;8.00;;;9.00;99.90;;;;;;5108775;28;20288;-85
2022/12/25 10:21:18;;;;;;;8.40;8.20;;;9.40;99.90;;;;;;5106079;28;20231;-85
2022/12/25 10:26:33;;;;;;;8.77;8.57;;;10.00;99.90;;;;;;5103300;28;20240;-85
2022/12/25 10:29:14;;;;;;;8.40;8.20;;;10.10;99.90;;;;;;5104520;28;20257;-84
2022/12/25 10:31:50;;;;;;;8.50;8.30;;;10.10;99.90;;;;;;5104320;28;20229;-84
2022/12/25 10:34:19;;;;;;;8.40;8.20;;;10.20;99.90;;;;;;5104483;28;20337;-84
2022/12/25 10:36:48;;;;;;;8.50;8.30;;;10.20;99.90;;;;;;5131446;22;20272;-84
2022/12/25 10:39:18;;;;;;;8.40;8.20;;;10.30;99.90;;;;;;5123359;27;20225;-84
2022/12/25 10:42:15;;;;;;;8.30;8.10;;;10.50;99.90;;;;;;5123928;28;20261;-84
2022/12/25 10:44:56;;;;;;;8.50;8.30;;;10.50;99.90;;;;;;5122931;27;20229;-84
2022/12/25 10:47:28;;;;;;;8.50;8.30;;;10.40;99.90;;;;;;5123762;28;20256;-83
2022/12/25 10:49:57;;;;;;;8.40;8.20;;;10.40;99.90;;;;;;5124038;27;20236;-84
2022/12/25 10:52:27;;;;;;;8.57;8.37;;;10.40;99.90;;;;;;5123881;28;20236;-83
2022/12/25 10:54:55;;;;;;;8.50;8.30;;;10.30;99.90;;;;;;5124889;28;20225;-84
2022/12/25 10:57:27;;;;;;;8.70;8.50;;;10.30;99.90;;;;;;5123641;28;20236;-83
2022/12/25 10:59:57;;;;;;;8.50;8.30;;;10.20;99.90;;;;;;5124610;28;20271;-84
2022/12/25 11:02:28;;;;;;;8.50;8.30;;;10.20;99.90;;;;;;5125470;28;20244;-84
2022/12/25 11:05:05;;;;;;;8.30;8.10;;;10.10;99.90;;;;;;5125859;28;20232;-84
2022/12/25 11:07:45;;;;;;;8.57;8.37;;;10.20;99.90;;;;;;5125756;28;20239;-84
2022/12/25 11:10:21;;;;;;;8.70;8.50;;;10.20;99.90;;;;;;5127204;28;20217;-85
2022/12/25 11:12:49;;;;;;;8.60;8.40;;;10.30;99.90;;;;;;5137212;27;20270;-84
2022/12/25 11:15:37;;;;;;;8.30;8.10;;;10.30;99.90;;;;;;5124683;27;20287;-84
2022/12/25 11:18:11;;;;;;;8.63;8.43;;;10.50;99.90;;;;;;5126211;27;20267;-84
2022/12/25 11:20:39;;;;;;;8.50;8.30;;;10.60;99.90;;;;;;5130417;27;20221;-84
2022/12/25 11:23:10;;;;;;;8.50;8.30;;;10.70;99.90;;;;;;5131289;27;20351;-84
2022/12/25 11:25:38;;;;;;;8.50;8.30;;;10.80;99.90;;;;;;5132266;28;20252;-84
2022/12/25 11:28:07;;;;;;;8.60;8.40;;;10.80;99.90;;;;;;5128563;27;20236;-84
2022/12/25 11:30:38;;;;;;;8.53;8.33;;;10.90;99.90;;;;;;5126789;27;20233;-83
2022/12/25 11:33:11;;;;;;;8.67;8.47;;;10.80;99.90;;;;;;5127847;27;20229;-84
2022/12/25 11:35:51;;;;;;;8.50;8.30;;;10.80;99.90;;;;;;5128619;28;20235;-84
2022/12/25 11:38:19;;;;;;;8.80;8.60;;;10.80;99.90;;;;;;5128777;27;20248;-84
2022/12/25 11:40:51;;;;;;;8.40;8.20;;;10.90;99.90;;;;;;5128676;27;20219;-84
2022/12/25 11:43:26;;;;;;;8.47;8.27;;;10.90;99.90;;;;;;5128712;27;20244;-84
2022/12/25 11:46:00;;;;;;;8.37;8.17;;;10.90;99.90;;;;;;5127571;27;20278;-84
2022/12/25 11:48:33;;;;;;;8.20;8.00;;;10.90;99.90;;;;;;5126667;28;20225;-84
2022/12/25 11:51:06;;;;;;;8.40;8.20;;;11.00;99.90;;;;;;5125788;28;20217;-84
2022/12/25 11:53:41;;;;;;;8.37;8.17;;;11.00;99.90;;;;;;5126046;27;20799;-84
2022/12/25 11:56:15;;;;;;;8.30;8.10;;;11.00;99.90;;;;;;5124989;28;20255;-84
2022/12/25 11:58:46;;;;;;;8.53;8.33;;;11.00;99.90;;;;;;5126748;27;20237;-84
2022/12/25 12:01:29;;;;;;;8.50;8.30;;;11.10;99.90;;;;;;5125378;28;20217;-84
2022/12/25 12:03:59;;;;;;;8.40;8.20;;;11.10;99.90;;;;;;5127965;28;20259;-84
2022/12/25 12:06:33;;;;;;;8.40;8.20;;;11.10;99.90;;;;;;5125816;28;20233;-84
2022/12/25 12:09:22;;;;;;;8.40;8.20;;;11.10;99.90;;;;;;5125179;27;20229;-84
2022/12/25 12:11:59;;;;;;;8.57;8.37;;;11.20;99.90;;;;;;5125623;27;20238;-84
2022/12/25 12:14:45;;;;;;;8.80;8.60;;;11.20;99.90;;;;;;5125113;27;20236;-84
2022/12/25 12:17:16;;;;;;;8.70;8.50;;;11.20;99.90;;;;;;5126286;28;20254;-84
2022/12/25 12:19:44;;;;;;;8.30;8.10;;;11.20;99.90;;;;;;5129604;28;20225;-86
2022/12/25 12:22:20;;;;;;;8.43;8.23;;;11.20;99.90;;;;;;5128736;27;20233;-85
2022/12/25 12:24:55;;;;;;;8.13;7.93;;;11.20;99.90;;;;;;5125771;27;20232;-84
2022/12/25 12:27:29;;;;;;;8.20;8.00;;;11.30;99.90;;;;;;5141555;27;20232;-84
2022/12/25 12:30:00;;;;;;;8.17;7.97;;;11.30;99.90;;;;;;5142124;27;20250;-82
2022/12/25 12:32:43;;;;;;;8.10;7.90;;;11.40;99.90;;;;;;5141808;27;20200;-82
2022/12/25 12:35:18;;;;;;;8.33;8.13;;;11.50;99.90;;;;;;5131234;27;20237;-83
2022/12/25 12:37:51;;;;;;;8.20;8.00;;;11.70;99.90;;;;;;5124864;28;20278;-83
2022/12/25 12:40:28;;;;;;;8.40;8.20;;;11.90;99.90;;;;;;5124675;27;20240;-83
2022/12/25 12:42:55;;;;;;;8.40;8.20;;;12.00;99.90;;;;;;5130172;27;20221;-84
2022/12/25 12:45:28;;;;;;;8.47;8.27;;;12.10;99.90;;;;;;5129465;27;20248;-84
2022/12/25 12:47:58;;;;;;;8.57;8.37;;;12.20;99.90;;;;;;5128922;28;20221;-84
2022/12/25 12:50:34;;;;;;;8.37;8.17;;;12.30;99.90;;;;;;5128383;27;20314;-84
2022/12/25 12:53:27;;;;;;;8.10;7.90;;;12.30;99.90;;;;;;5123617;28;20235;-84
2022/12/25 12:55:55;;;;;;;8.10;7.90;;;12.20;99.90;;;;;;5122911;28;20233;-84
2022/12/25 12:58:32;;;;;;;8.40;8.20;;;12.10;99.90;;;;;;5123411;27;20273;-84
2022/12/25 13:01:14;;;;;;;8.50;8.30;;;12.10;99.90;;;;;;5123210;27;20227;-84
2022/12/25 13:04:03;;;;;;;8.30;8.10;;;12.00;99.90;;;;;;5126010;28;20224;-84
2022/12/25 13:06:40;;;;;;;8.33;8.13;;;12.00;99.90;;;;;;5125190;27;20233;-84
2022/12/25 13:09:26;;;;;;;8.07;7.87;;;11.90;99.90;;;;;;5124113;28;20225;-84
2022/12/25 13:11:54;;;;;;;8.13;7.93;;;11.90;99.90;;;;;;5133510;27;20224;-84
2022/12/25 13:14:24;;;;;;;8.37;8.17;;;11.90;99.90;;;;;;5137444;28;20232;-84
2022/12/25 13:16:54;;;;;;;8.30;8.10;;;11.90;99.90;;;;;;5134884;27;20228;-84
2022/12/25 13:19:27;;;;;;;8.60;8.40;;;11.80;99.90;;;;;;5129174;27;20232;-84
2022/12/25 13:21:58;;;;;;;8.40;8.20;;;11.80;99.90;;;;;;5131007;28;20201;-84
2022/12/25 13:24:28;;;;;;;8.50;8.30;;;11.70;99.90;;;;;;5137773;27;20205;-84
2022/12/25 13:26:56;;;;;;;8.80;8.60;;;11.80;99.90;;;;;;5134430;27;20267;-83
2022/12/25 13:29:35;;;;;;;8.30;8.10;;;11.80;99.90;;;;;;5129469;28;20255;-84
2022/12/25 13:32:06;;;;;;;8.20;8.00;;;11.80;99.90;;;;;;5126975;28;20213;-85
2022/12/25 13:34:39;;;;;;;8.03;7.83;;;11.80;99.90;;;;;;5124777;28;20231;-85
2022/12/25 13:37:10;;;;;;;8.20;8.00;;;11.90;99.90;;;;;;5124140;28;20228;-85
2022/12/25 13:39:47;;;;;;;8.17;7.97;;;11.90;99.90;;;;;;5124205;27;20228;-84
2022/12/25 13:42:20;;;;;;;8.00;7.80;;;11.90;99.90;;;;;;5124338;28;20232;-84
2022/12/25 13:44:51;;;;;;;8.30;8.10;;;11.90;99.90;;;;;;5125160;27;20274;-84
2022/12/25 13:47:24;;;;;;;8.00;7.80;;;11.90;99.90;;;;;;5124105;27;20232;-85
2022/12/25 13:49:56;;;;;;;7.90;7.70;;;11.90;99.90;;;;;;5126754;28;21028;-84
2022/12/25 13:52:31;;;;;;;7.93;7.73;;;11.90;99.90;;;;;;5130083;28;20255;-83
2022/12/25 13:55:01;;;;;;;8.07;7.87;;;11.90;99.90;;;;;;5135275;27;20244;-84
2022/12/25 13:57:35;;;;;;;8.00;7.80;;;11.90;99.90;;;;;;5134739;27;20228;-84
2022/12/25 14:00:06;;;;;;;8.10;7.90;;;12.00;99.90;;;;;;5135710;28;20251;-84
2022/12/25 14:02:38;;;;;;;8.30;8.10;;;12.10;99.90;;;;;;5133518;28;20247;-84
2022/12/25 14:08:13;;;;;;;8.30;8.10;;;12.00;99.90;;;;;;5141529;27;1496939;-82
2022/12/25 14:10:42;;;;;;;8.03;7.83;;;11.80;99.90;;;;;;5191193;27;20299;-82
2022/12/25 14:13:18;;;;;;;8.20;8.00;;;11.80;99.90;;;;;;5190469;27;20320;-83
2022/12/25 14:15:48;;;;;;;8.00;7.80;;;11.70;99.90;;;;;;5183261;27;20318;-83
2022/12/25 14:18:18;;;;;;;8.17;7.97;;;11.80;99.90;;;;;;5183026;27;20227;-83
2022/12/25 14:21:00;;;;;;;8.23;8.03;;;12.00;99.90;;;;;;5183675;27;20252;-83
2022/12/25 14:23:41;;;;;;;8.20;8.00;;;12.30;99.90;;;;;;5181261;27;20226;-84
2022/12/25 14:26:17;;;;;;;8.20;8.00;;;12.40;99.90;;;;;;5182451;27;20231;-82
2022/12/25 14:28:49;;;;;;;8.33;8.13;;;12.40;99.90;;;;;;5180829;27;20223;-82
2022/12/25 14:31:17;;;;;;;8.17;7.97;;;12.40;99.90;;;;;;5180813;27;20230;-83
2022/12/25 14:33:52;;;;;;;8.20;8.00;;;12.30;99.90;;;;;;5181467;27;20237;-83
2022/12/25 14:36:20;;;;;;;8.10;7.90;;;12.20;99.90;;;;;;5181094;27;20227;-83
2022/12/25 14:38:59;;;;;;;8.27;8.07;;;12.20;99.90;;;;;;5183372;27;20234;-84
2022/12/25 14:41:35;;;;;;;8.13;7.93;;;12.10;99.90;;;;;;5182101;27;20279;-84
2022/12/25 14:44:06;;;;;;;7.93;7.73;;;11.90;99.90;;;;;;5182849;27;20234;-84
2022/12/25 14:46:34;;;;;;;8.17;7.97;;;11.80;99.90;;;;;;5181590;27;20215;-83
2022/12/25 14:49:04;;;;;;;8.30;8.10;;;11.70;99.90;;;;;;5181756;27;20283;-84
2022/12/25 14:51:33;;;;;;;8.17;7.97;;;11.60;99.90;;;;;;5182094;27;20227;-84
2022/12/25 14:54:05;;;;;;;8.53;8.33;;;11.60;99.90;;;;;;5181006;27;21177;-84
2022/12/25 14:56:38;;;;;;;8.50;8.30;;;11.50;99.90;;;;;;5180197;27;20258;-84
2022/12/25 14:59:08;;;;;;;8.33;8.13;;;11.50;99.90;;;;;;5179751;27;20252;-84
2022/12/25 15:01:40;;;;;;;8.90;8.70;;;11.40;99.90;;;;;;5181261;27;20237;-84
2022/12/25 15:04:15;;;;;;;8.73;8.50;;;11.40;99.90;;;;;;5181940;27;20290;-84
2022/12/25 15:06:55;;;;;;;8.83;8.63;;;11.30;99.90;;;;;;5180886;27;20219;-84
2022/12/25 15:09:29;;;;;;;8.70;8.50;;;11.20;99.90;;;;;;5182641;27;20237;-85
2022/12/25 15:11:58;;;;;;;8.90;8.70;;;11.20;99.90;;;;;;5198561;27;20213;-83
2022/12/25 15:14:28;;;;;;;8.70;8.50;;;11.20;99.90;;;;;;5196145;27;20225;-84
2022/12/25 15:16:59;;;;;;;8.30;8.10;;;11.20;99.90;;;;;;5184809;27;20253;-84
2022/12/25 15:19:30;;;;;;;8.37;8.17;;;11.10;99.90;;;;;;5169290;27;20246;-84
2022/12/25 15:22:01;;;;;;;8.30;8.10;;;11.10;99.90;;;;;;5168392;27;20228;-84
2022/12/25 15:24:31;;;;;;;8.70;8.50;;;11.10;99.90;;;;;;5167680;27;20239;-84
2022/12/25 15:26:59;;;;;;;8.60;8.40;;;11.00;99.90;;;;;;5167823;27;20281;-85